Dennis, MA (02638)

5:56 AM EDT on May 30, 2015 (GMT -0400)
Scargo Hill Dennis MA | | Change Station
CLOSE
Current Station
Personal Weather Station
Location: Dennis, MA
Elevation: 133 ft
Nearby Weather Stations
Active Advisory: Dense Fog Advisory

Elev 133 ft 41.74 °N, 70.18 °W | Updated 10 seconds ago

Fog
Fog
61.3 °F
Feels Like 61.3 °F
N
1.6
Wind Variable Wind from SSE
Gusts 5.4 mph

Today
High -- | Low -- °F
--% Chance of Precip.
Yesterday
High -- | Low -- °F
Precip. -- in
5:09 AM 8:07 PM
Waxing Gibbous, 89% visible
Pressure 30.22 in
Visibility 0.2 miles
Clouds
Dew Point 61 °F
Humidity 99%
Rainfall 0.00 in
Snow Depth Not available.
UV Not available.
Pollen 8.40 out of 12
Air Quality Not available.
Flu Activity Local Activity
SPECI KHYA 300936Z 21005KT 1/4SM FG VV002 16/16 A3022 RMK AO2 T01610161

More Conditions Fewer Conditions

Pressure 30.22 in
Visibility 0.2 miles
Clouds
Dew Point 61 °F
Humidity 99%
Rainfall 0.00 in
Snow Depth Not available.
UV Not available.
Pollen 8.40 out of 12
Air Quality Not available.
Flu Activity Local Activity
SPECI KHYA 300936Z 21005KT 1/4SM FG VV002 16/16 A3022 RMK AO2 T01610161

More Conditions Fewer Conditions

10-Day Weather Forecast

Almanac

Astronomy

May. 30, 2015 Rise Set
Actual Time
Civil Twilight
Nautical Twilight
Astronomical Twilight
Moon
Length of Visible Light
Length of Day
Tomorrow will be .
, % of the Moon is Illuminated

Today's Extremes

State Highs State Lows

Community

WunderPhotos

Upload Photos

1,825,476 photos uploaded!

WunderBlogs® & News

Nearby

Air Quality

  Air Quality AQ Index Pollutant
Not available.

Snow Depth

Station Depth Elevation

Earthquake Activity

City Distance Mag. Time & Date
Minimum magnitude displayed is 2.5.

Coastal Water Temperatures

Place Temperature

Stations

Nearby Weather Stations

Station Location Temp. Windchill Dew Point Humidity Wind Precip. Elev Updated Type
                   
Dense Fog Advisory
Statement as of 3:57 AM EDT on May 30, 2015

... Dense fog advisory remains in effect until 8 am EDT this
morning...

* location... along the South Coast of Rhode Island and in
southeast Massachusetts.

* Visibilities... one quarter mile or less at times.

* Timing... til this morning.

* Impacts... areas of dense fog will result in poor visibilities.
Motorist are urged to use caution when encountering the
reduced visibilities due to the dense fog. Slow down and use
low beams.

Precautionary/preparedness actions...

A dense fog advisory is issued when dense fog will reduce
visibilities to one quarter mile or less for at least 3 hours...
resulting in hazardous driving conditions. Motorists are advised
to slow down as objects on and near roadways will be seen only at
close range.




For the latest updates... please visit our webpage at
www.Weather.Gov/Boston

You can follow US on facebook at
www.Facebook.Com/nwsboston